createdAt,value
2018-03-03T00:00:03.131Z,70.49
2018-03-03T00:01:03.126Z,70.49
2018-03-03T00:02:03.149Z,70.49
2018-03-03T00:03:03.126Z,70.49
2018-03-03T00:04:03.128Z,70.49
2018-03-03T00:05:03.130Z,70.49
2018-03-03T00:06:03.128Z,70.49
2018-03-03T00:07:03.121Z,70.49
2018-03-03T00:08:03.122Z,70.49
2018-03-03T00:09:03.124Z,70.58
2018-03-03T00:10:03.131Z,70.58
2018-03-03T00:11:03.114Z,70.58
2018-03-03T00:12:03.122Z,70.58
2018-03-03T00:13:03.112Z,70.58
2018-03-03T00:14:03.116Z,70.58
2018-03-03T00:15:03.110Z,70.58
2018-03-03T00:16:03.117Z,70.58
2018-03-03T00:17:03.113Z,70.49
2018-03-03T00:18:03.271Z,70.49
2018-03-03T00:19:03.107Z,70.49
2018-03-03T00:20:03.117Z,70.49
2018-03-03T00:21:03.110Z,70.49
2018-03-03T00:22:03.109Z,70.49
2018-03-03T00:23:03.100Z,70.58
2018-03-03T00:24:03.117Z,70.49
2018-03-03T00:25:03.115Z,70.58
2018-03-03T00:26:03.117Z,70.49
2018-03-03T00:27:03.096Z,70.49
2018-03-03T00:28:03.103Z,70.49
2018-03-03T00:29:03.093Z,70.49
2018-03-03T00:30:03.099Z,70.58
2018-03-03T00:31:03.114Z,70.58
2018-03-03T00:32:03.097Z,70.58
2018-03-03T00:33:03.089Z,70.58
2018-03-03T00:34:03.094Z,70.58
2018-03-03T00:35:03.089Z,70.58
2018-03-03T00:36:03.093Z,70.58
2018-03-03T00:37:03.086Z,70.58
2018-03-03T00:38:04.090Z,70.68
2018-03-03T00:39:03.094Z,70.58
2018-03-03T00:40:03.080Z,70.58
2018-03-03T00:41:03.098Z,70.58
2018-03-03T00:42:03.086Z,70.68
2018-03-03T00:43:03.088Z,70.58
2018-03-03T00:44:03.086Z,70.58
2018-03-03T00:45:03.085Z,70.58
2018-03-03T00:46:03.088Z,70.58
2018-03-03T00:47:03.075Z,70.58
2018-03-03T00:48:03.088Z,70.58
2018-03-03T00:49:03.081Z,70.68
2018-03-03T00:50:03.102Z,70.68
2018-03-03T00:51:03.072Z,70.68
2018-03-03T00:52:03.078Z,70.68
2018-03-03T00:53:03.064Z,70.68
2018-03-03T00:54:03.065Z,70.68
2018-03-03T00:55:03.063Z,70.68
2018-03-03T00:56:03.074Z,70.68
2018-03-03T00:57:03.062Z,70.68
2018-03-03T00:58:03.064Z,70.77
2018-03-03T00:59:03.054Z,70.77
2018-03-03T01:00:03.072Z,70.77
2018-03-03T01:01:03.057Z,70.77
2018-03-03T01:02:03.074Z,70.77
2018-03-03T01:03:03.051Z,70.77
2018-03-03T01:04:03.082Z,70.77
2018-03-03T01:05:03.059Z,70.87
2018-03-03T01:06:03.056Z,70.87
2018-03-03T01:07:03.043Z,70.87
2018-03-03T01:08:03.050Z,70.87
2018-03-03T01:09:03.053Z,70.87
2018-03-03T01:10:03.076Z,70.87
2018-03-03T01:11:03.054Z,70.87
2018-03-03T01:12:03.087Z,70.87
2018-03-03T01:13:03.042Z,70.87
2018-03-03T01:14:03.034Z,70.96
2018-03-03T01:15:03.082Z,70.96
2018-03-03T01:16:03.036Z,70.96
2018-03-03T01:17:03.042Z,70.96
2018-03-03T01:18:03.063Z,70.96
2018-03-03T01:19:03.040Z,70.96
2018-03-03T01:20:03.035Z,70.96
2018-03-03T01:21:03.026Z,70.96
2018-03-03T01:22:03.069Z,71.06
2018-03-03T01:23:03.040Z,71.06
2018-03-03T01:24:03.034Z,71.06
2018-03-03T01:25:03.039Z,71.06
2018-03-03T01:26:03.122Z,71.15
2018-03-03T01:27:03.036Z,71.15
2018-03-03T01:28:03.025Z,71.15
2018-03-03T01:29:03.030Z,71.15
2018-03-03T01:30:03.070Z,71.15
2018-03-03T01:31:03.020Z,71.25
2018-03-03T01:32:03.029Z,71.25
2018-03-03T01:33:03.010Z,71.25
2018-03-03T01:34:03.020Z,71.25
2018-03-03T01:35:03.012Z,71.30
2018-03-03T01:36:03.015Z,71.34
2018-03-03T01:37:03.024Z,71.34
2018-03-03T01:38:03.014Z,71.34
2018-03-03T01:39:03.006Z,71.34
2018-03-03T01:40:03.013Z,71.34
2018-03-03T01:41:03.009Z,71.25
2018-03-03T01:42:03.014Z,71.25
2018-03-03T01:43:03.000Z,71.25
2018-03-03T01:44:04.010Z,71.15
2018-03-03T01:45:02.999Z,71.15
2018-03-03T01:46:03.001Z,71.06
2018-03-03T01:47:02.996Z,71.06
2018-03-03T01:48:02.994Z,71.06
2018-03-03T01:49:02.986Z,71.06
2018-03-03T01:50:02.993Z,71.06
2018-03-03T01:51:02.997Z,70.96
2018-03-03T01:52:02.998Z,70.96
2018-03-03T01:53:02.986Z,70.96
2018-03-03T01:54:03.003Z,70.96
2018-03-03T01:55:02.986Z,70.96
2018-03-03T01:56:02.987Z,70.96
2018-03-03T01:57:02.980Z,70.96
2018-03-03T01:58:03.985Z,70.96
2018-03-03T01:59:02.974Z,70.87
2018-03-03T02:00:02.977Z,70.87
2018-03-03T02:01:02.978Z,70.87
2018-03-03T02:02:02.982Z,70.87
2018-03-03T02:03:02.992Z,70.87
2018-03-03T02:04:02.986Z,70.87
2018-03-03T02:05:02.976Z,70.87
2018-03-03T02:06:02.973Z,70.77
2018-03-03T02:07:02.972Z,70.77
2018-03-03T02:08:02.969Z,70.77
2018-03-03T02:09:02.973Z,70.77
2018-03-03T02:10:02.968Z,70.77
2018-03-03T02:11:02.962Z,70.77
2018-03-03T02:12:02.963Z,70.77
2018-03-03T02:13:02.959Z,70.77
2018-03-03T02:14:02.958Z,70.77
2018-03-03T02:15:02.954Z,70.77
2018-03-03T02:16:02.995Z,70.77
2018-03-03T02:17:02.953Z,70.77
2018-03-03T02:18:02.953Z,70.77
2018-03-03T02:19:02.976Z,70.77
2018-03-03T02:20:02.958Z,70.77
2018-03-03T02:21:02.950Z,70.77
2018-03-03T02:22:02.951Z,70.77
2018-03-03T02:23:02.950Z,70.77
2018-03-03T02:24:02.950Z,70.77
2018-03-03T02:25:02.953Z,70.77
2018-03-03T02:26:02.946Z,70.77
2018-03-03T02:27:02.945Z,70.77
2018-03-03T02:28:02.956Z,70.77
2018-03-03T02:29:02.934Z,70.77
2018-03-03T02:30:02.937Z,70.77
2018-03-03T02:31:02.934Z,70.77
2018-03-03T02:32:02.933Z,70.77
2018-03-03T02:33:02.929Z,70.77
2018-03-03T02:34:02.934Z,70.77
2018-03-03T02:35:02.925Z,70.77
2018-03-03T02:36:02.928Z,70.77
2018-03-03T02:37:02.919Z,70.77
2018-03-03T02:38:02.921Z,70.77
2018-03-03T02:39:02.933Z,70.77
2018-03-03T02:40:02.925Z,70.77
2018-03-03T02:41:02.917Z,70.77
2018-03-03T02:42:02.921Z,70.77
2018-03-03T02:43:02.921Z,70.77
2018-03-03T02:44:02.913Z,70.77
2018-03-03T02:45:02.919Z,70.77
2018-03-03T02:46:02.913Z,70.77
2018-03-03T02:47:02.906Z,70.77
2018-03-03T02:48:02.910Z,70.77
2018-03-03T02:49:02.906Z,70.77
2018-03-03T02:50:02.912Z,70.77
2018-03-03T02:51:02.900Z,70.77
2018-03-03T02:52:02.907Z,70.77
2018-03-03T02:53:02.896Z,70.77
2018-03-03T02:54:02.904Z,70.77
2018-03-03T02:55:02.900Z,70.68
2018-03-03T02:56:02.907Z,70.68
2018-03-03T02:57:02.901Z,70.68
2018-03-03T02:58:02.897Z,70.77
2018-03-03T02:59:02.889Z,70.77
2018-03-03T03:00:02.894Z,70.77
2018-03-03T03:01:02.887Z,70.77
2018-03-03T03:02:02.897Z,70.68
2018-03-03T03:03:02.887Z,70.77
2018-03-03T03:04:02.917Z,70.77
2018-03-03T03:05:02.885Z,70.77
2018-03-03T03:06:02.887Z,70.77
2018-03-03T03:07:02.880Z,70.77
2018-03-03T03:08:02.883Z,70.77
2018-03-03T03:09:02.870Z,70.77
2018-03-03T03:10:02.923Z,70.77
2018-03-03T03:11:02.880Z,70.77
2018-03-03T03:12:02.876Z,70.77
2018-03-03T03:13:02.864Z,70.77
2018-03-03T03:14:02.870Z,70.77
2018-03-03T03:15:02.874Z,70.77
2018-03-03T03:16:02.884Z,70.77
2018-03-03T03:17:02.871Z,70.77
2018-03-03T03:18:02.865Z,70.87
2018-03-03T03:19:02.859Z,70.87
2018-03-03T03:20:02.865Z,70.87
2018-03-03T03:21:02.857Z,70.87
2018-03-03T03:22:03.865Z,70.87
2018-03-03T03:23:02.850Z,70.87
2018-03-03T03:24:02.857Z,70.87
2018-03-03T03:25:02.852Z,70.77
2018-03-03T03:26:02.855Z,70.77
2018-03-03T03:27:02.847Z,70.77
2018-03-03T03:28:02.862Z,70.77
2018-03-03T03:29:02.843Z,70.77
2018-03-03T03:30:02.860Z,70.77
2018-03-03T03:31:02.836Z,70.77
2018-03-03T03:32:02.846Z,70.77
2018-03-03T03:33:02.848Z,70.77
2018-03-03T03:34:02.859Z,70.77
2018-03-03T03:35:02.834Z,70.77
2018-03-03T03:36:02.838Z,70.77
2018-03-03T03:37:02.833Z,70.77
2018-03-03T03:38:02.831Z,70.77
2018-03-03T03:39:02.829Z,70.68
2018-03-03T03:40:02.843Z,70.68
2018-03-03T03:41:02.824Z,70.68
2018-03-03T03:42:02.824Z,70.77
2018-03-03T03:43:02.833Z,70.68
2018-03-03T03:44:02.831Z,70.77
2018-03-03T03:45:02.815Z,70.77
2018-03-03T03:46:02.820Z,70.77
2018-03-03T03:47:02.810Z,70.77
2018-03-03T03:48:02.818Z,70.77
2018-03-03T03:49:02.812Z,70.77
2018-03-03T03:50:02.814Z,70.77
2018-03-03T03:51:02.812Z,70.77
2018-03-03T03:52:02.810Z,70.77
2018-03-03T03:53:02.812Z,70.87
2018-03-03T03:54:02.809Z,70.87
2018-03-03T03:55:02.803Z,70.87
2018-03-03T03:56:02.809Z,70.87
2018-03-03T03:57:02.794Z,70.87
2018-03-03T03:58:02.800Z,70.87
2018-03-03T03:59:02.800Z,70.96
2018-03-03T04:00:02.793Z,70.96
2018-03-03T04:01:02.791Z,70.96
2018-03-03T04:02:02.796Z,70.96
2018-03-03T04:03:02.790Z,70.96
2018-03-03T04:04:02.795Z,70.96
2018-03-03T04:05:02.791Z,70.96
2018-03-03T04:06:03.793Z,70.96
2018-03-03T04:07:02.782Z,70.96
2018-03-03T04:08:02.795Z,70.96
2018-03-03T04:09:02.778Z,70.96
2018-03-03T04:10:02.782Z,70.96
2018-03-03T04:11:02.779Z,70.96
2018-03-03T04:12:02.772Z,70.96
2018-03-03T04:13:02.779Z,70.96
2018-03-03T04:14:02.785Z,70.96
2018-03-03T04:15:02.764Z,71.06
2018-03-03T04:16:02.774Z,71.06
2018-03-03T04:17:02.765Z,71.06
2018-03-03T04:18:02.767Z,71.06
2018-03-03T04:19:02.764Z,71.06
2018-03-03T04:20:02.806Z,71.06
2018-03-03T04:21:02.754Z,71.06
2018-03-03T04:22:02.763Z,71.15
2018-03-03T04:23:02.760Z,71.06
2018-03-03T04:24:02.756Z,71.06
2018-03-03T04:25:02.758Z,71.06
2018-03-03T04:26:02.753Z,71.06
2018-03-03T04:27:02.755Z,71.06
2018-03-03T04:28:02.762Z,71.15
2018-03-03T04:29:02.743Z,71.15
2018-03-03T04:30:02.747Z,71.15
2018-03-03T04:31:02.746Z,71.15
2018-03-03T04:32:03.748Z,71.15
2018-03-03T04:33:02.734Z,71.15
2018-03-03T04:34:02.739Z,71.15
2018-03-03T04:35:02.736Z,71.15
2018-03-03T04:36:02.743Z,71.15
2018-03-03T04:37:02.727Z,71.25
2018-03-03T04:38:02.732Z,71.25
2018-03-03T04:39:02.730Z,71.25
2018-03-03T04:40:02.744Z,71.15
2018-03-03T04:41:02.730Z,71.25
2018-03-03T04:42:02.760Z,71.25
2018-03-03T04:43:02.724Z,71.25
2018-03-03T04:44:02.731Z,71.25
2018-03-03T04:45:02.729Z,71.25
2018-03-03T04:46:02.716Z,71.25
2018-03-03T04:47:02.719Z,71.25
2018-03-03T04:48:02.721Z,71.25
2018-03-03T04:49:02.746Z,71.25
2018-03-03T04:50:02.733Z,71.25
2018-03-03T04:51:02.712Z,71.25
2018-03-03T04:52:02.732Z,71.25
2018-03-03T04:53:02.708Z,71.25
2018-03-03T04:54:02.709Z,71.25
2018-03-03T04:55:02.703Z,71.25
2018-03-03T04:56:02.706Z,71.25
2018-03-03T04:57:02.702Z,71.25
2018-03-03T04:58:02.701Z,71.25
2018-03-03T04:59:02.688Z,71.25
2018-03-03T05:00:02.709Z,71.25
2018-03-03T05:01:02.710Z,71.34
2018-03-03T05:02:02.695Z,71.34
2018-03-03T05:03:02.688Z,71.34
2018-03-03T05:04:02.693Z,71.34
2018-03-03T05:05:02.685Z,71.34
2018-03-03T05:06:02.681Z,71.34
2018-03-03T05:07:02.691Z,71.34
2018-03-03T05:08:02.677Z,71.34
2018-03-03T05:09:02.700Z,71.34
2018-03-03T05:10:02.687Z,71.34
2018-03-03T05:11:02.676Z,71.34
2018-03-03T05:12:02.673Z,71.34
2018-03-03T05:13:02.672Z,71.34
2018-03-03T05:14:02.667Z,71.43
2018-03-03T05:15:02.677Z,71.34
2018-03-03T05:16:02.686Z,71.34
2018-03-03T05:17:02.670Z,71.43
2018-03-03T05:18:02.685Z,71.43
2018-03-03T05:19:02.657Z,71.43
2018-03-03T05:20:02.655Z,71.43
2018-03-03T05:21:02.659Z,71.43
2018-03-03T05:22:02.665Z,71.43
2018-03-03T05:23:02.650Z,71.43
2018-03-03T05:24:02.655Z,71.43
2018-03-03T05:25:02.652Z,71.43
2018-03-03T05:26:02.657Z,71.43
2018-03-03T05:27:02.654Z,71.43
2018-03-03T05:28:02.648Z,71.43
2018-03-03T05:29:02.651Z,71.43
2018-03-03T05:30:02.644Z,71.43
2018-03-03T05:31:02.634Z,71.53
2018-03-03T05:32:02.635Z,71.53
2018-03-03T05:33:02.638Z,71.53
2018-03-03T05:34:02.635Z,71.53
2018-03-03T05:35:02.660Z,71.53
2018-03-03T05:36:02.630Z,71.53
2018-03-03T05:37:02.630Z,71.53
2018-03-03T05:38:02.632Z,71.53
2018-03-03T05:39:02.625Z,71.53
2018-03-03T05:40:02.626Z,71.53
2018-03-03T05:41:03.157Z,71.53
2018-03-03T05:42:02.614Z,71.53
2018-03-03T05:43:02.633Z,71.53
2018-03-03T05:44:02.618Z,71.53
2018-03-03T05:45:02.616Z,71.53
2018-03-03T05:46:02.608Z,71.53
2018-03-03T05:47:02.622Z,71.53
2018-03-03T05:48:02.612Z,71.53
2018-03-03T05:49:02.614Z,71.62
2018-03-03T05:50:02.609Z,71.62
2018-03-03T05:51:02.604Z,71.62
2018-03-03T05:52:02.600Z,71.62
2018-03-03T05:53:02.607Z,71.62
2018-03-03T05:54:02.602Z,71.62
2018-03-03T05:55:02.600Z,71.62
2018-03-03T05:56:02.600Z,71.62
2018-03-03T05:57:02.601Z,71.62
2018-03-03T05:58:02.598Z,71.62
2018-03-03T05:59:02.600Z,71.62
2018-03-03T06:00:02.586Z,71.62
2018-03-03T06:01:02.590Z,71.62
2018-03-03T06:02:02.600Z,71.72
2018-03-03T06:03:02.597Z,71.62
2018-03-03T06:04:02.597Z,71.62
2018-03-03T06:05:02.583Z,71.72
2018-03-03T06:06:02.619Z,71.72
2018-03-03T06:07:02.578Z,71.72
2018-03-03T06:08:02.568Z,71.72
2018-03-03T06:09:02.572Z,71.72
2018-03-03T06:10:02.583Z,71.72
2018-03-03T06:11:02.575Z,71.72
2018-03-03T06:12:02.561Z,71.72
2018-03-03T06:13:02.566Z,71.72
2018-03-03T06:14:02.558Z,71.72
2018-03-03T06:15:02.568Z,71.72
2018-03-03T06:16:02.564Z,71.72
2018-03-03T06:17:02.558Z,71.72
2018-03-03T06:18:02.556Z,71.72
2018-03-03T06:19:02.557Z,71.72
2018-03-03T06:20:02.554Z,71.72
2018-03-03T06:21:02.594Z,71.72
2018-03-03T06:22:02.548Z,71.72
2018-03-03T06:23:02.547Z,71.72
2018-03-03T06:24:02.541Z,71.72
2018-03-03T06:25:03.558Z,71.72
2018-03-03T06:26:02.548Z,71.72
2018-03-03T06:27:02.539Z,71.72
2018-03-03T06:28:02.536Z,71.72
2018-03-03T06:29:02.538Z,71.72
2018-03-03T06:30:02.529Z,71.72
2018-03-03T06:31:02.534Z,71.72
2018-03-03T06:32:02.533Z,71.72
2018-03-03T06:33:02.529Z,71.72
2018-03-03T06:34:02.521Z,71.72
2018-03-03T06:35:02.520Z,71.72
2018-03-03T06:36:02.533Z,71.72
2018-03-03T06:37:02.532Z,71.72
2018-03-03T06:38:02.511Z,71.72
2018-03-03T06:39:02.521Z,71.72
2018-03-03T06:40:02.511Z,71.72
2018-03-03T06:41:02.509Z,71.72
2018-03-03T06:42:02.513Z,71.72
2018-03-03T06:43:02.508Z,71.72
2018-03-03T06:44:02.501Z,71.62
2018-03-03T06:45:02.511Z,71.72
2018-03-03T06:46:02.508Z,71.72
2018-03-03T06:47:02.503Z,71.72
2018-03-03T06:48:02.499Z,71.62
2018-03-03T06:49:02.499Z,71.72
2018-03-03T06:50:02.535Z,71.72
2018-03-03T06:51:02.500Z,71.62
2018-03-03T06:52:02.492Z,71.62
2018-03-03T06:53:02.489Z,71.62
2018-03-03T06:54:02.485Z,71.62
2018-03-03T06:55:02.491Z,71.62
2018-03-03T06:56:02.478Z,71.62
2018-03-03T06:57:02.494Z,71.62
2018-03-03T06:58:02.479Z,71.62
2018-03-03T06:59:02.484Z,71.62
2018-03-03T07:00:02.478Z,71.62
2018-03-03T07:01:02.475Z,71.62
2018-03-03T07:02:02.468Z,71.62
2018-03-03T07:03:02.471Z,71.62
2018-03-03T07:04:02.461Z,71.62
2018-03-03T07:05:02.479Z,71.62
2018-03-03T07:06:02.468Z,71.72
2018-03-03T07:07:02.466Z,71.72
2018-03-03T07:08:02.455Z,71.62
2018-03-03T07:09:02.464Z,71.62
2018-03-03T07:10:02.461Z,71.62
2018-03-03T07:11:02.451Z,71.62
2018-03-03T07:12:02.453Z,71.62
2018-03-03T07:13:02.453Z,71.62
2018-03-03T07:14:02.446Z,71.62
2018-03-03T07:15:02.452Z,71.62
2018-03-03T07:16:02.443Z,71.53
2018-03-03T07:17:02.442Z,71.53
2018-03-03T07:18:02.451Z,71.53
2018-03-03T07:19:02.438Z,71.53
2018-03-03T07:20:02.437Z,71.43
2018-03-03T07:21:02.435Z,71.43
2018-03-03T07:22:02.442Z,71.47
2018-03-03T07:23:02.439Z,71.47
2018-03-03T07:24:02.431Z,71.47
2018-03-03T07:25:02.436Z,71.47
2018-03-03T07:26:02.422Z,71.47
2018-03-03T07:27:02.423Z,71.47
2018-03-03T07:28:02.417Z,71.47
2018-03-03T07:29:02.427Z,71.47
2018-03-03T07:30:02.422Z,71.47
2018-03-03T07:31:02.422Z,71.34
2018-03-03T07:32:02.414Z,71.37
2018-03-03T07:33:02.416Z,71.34
2018-03-03T07:34:02.410Z,71.34
2018-03-03T07:35:02.413Z,71.34
2018-03-03T07:36:02.438Z,71.34
2018-03-03T07:37:02.413Z,71.34
2018-03-03T07:38:02.396Z,71.34
2018-03-03T07:39:02.416Z,71.43
2018-03-03T07:40:02.398Z,71.43
2018-03-03T07:41:02.402Z,71.43
2018-03-03T07:42:02.393Z,71.53
2018-03-03T07:43:02.395Z,71.53
2018-03-03T07:44:02.401Z,71.53
2018-03-03T07:45:02.394Z,71.53
2018-03-03T07:46:02.384Z,71.53
2018-03-03T07:47:03.391Z,71.43
2018-03-03T07:48:02.382Z,71.43
2018-03-03T07:49:02.395Z,71.53
2018-03-03T07:50:02.378Z,71.53
2018-03-03T07:51:02.428Z,71.53
2018-03-03T07:52:02.375Z,71.62
2018-03-03T07:53:02.376Z,71.62
2018-03-03T07:54:02.397Z,71.72
2018-03-03T07:55:02.402Z,71.72
2018-03-03T07:56:02.389Z,71.72
2018-03-03T07:57:02.367Z,71.81
2018-03-03T07:58:02.386Z,71.72
2018-03-03T07:59:02.374Z,71.72
2018-03-03T08:00:02.381Z,71.72
2018-03-03T08:01:02.390Z,71.72
2018-03-03T08:02:02.372Z,71.81
2018-03-03T08:03:02.354Z,71.81
2018-03-03T08:04:02.365Z,71.81
2018-03-03T08:05:02.394Z,71.91
2018-03-03T08:06:02.350Z,71.91
2018-03-03T08:07:03.440Z,72.00
2018-03-03T08:08:02.447Z,72.00
2018-03-03T08:09:02.397Z,72.00
2018-03-03T08:10:02.352Z,72.00
2018-03-03T08:11:02.340Z,72.00
2018-03-03T08:12:02.340Z,72.09
2018-03-03T08:13:02.346Z,72.09
2018-03-03T08:14:02.339Z,72.09
2018-03-03T08:15:02.335Z,72.09
2018-03-03T08:16:02.326Z,72.09
2018-03-03T08:17:02.336Z,72.09
2018-03-03T08:18:02.323Z,72.09
2018-03-03T08:19:02.336Z,72.09
2018-03-03T08:20:02.315Z,72.09
2018-03-03T08:21:02.319Z,72.00
2018-03-03T08:22:02.324Z,72.00
2018-03-03T08:23:02.328Z,72.00
2018-03-03T08:24:02.342Z,71.91
2018-03-03T08:25:02.324Z,71.91
2018-03-03T08:26:02.310Z,71.91
2018-03-03T08:27:02.308Z,71.91
2018-03-03T08:28:02.370Z,71.91
2018-03-03T08:29:02.300Z,71.91
2018-03-03T08:30:02.345Z,71.91
2018-03-03T08:31:02.301Z,71.91
2018-03-03T08:32:02.308Z,71.91
2018-03-03T08:33:02.297Z,71.91
2018-03-03T08:34:02.298Z,71.91
2018-03-03T08:35:02.295Z,71.91
2018-03-03T08:36:02.294Z,71.81
2018-03-03T08:37:02.297Z,71.81
2018-03-03T08:38:02.304Z,71.72
2018-03-03T08:39:02.286Z,71.66
2018-03-03T08:40:02.286Z,71.56
2018-03-03T08:41:02.287Z,71.47
2018-03-03T08:42:02.286Z,71.37
2018-03-03T08:43:03.291Z,71.19
2018-03-03T08:44:02.279Z,71.09
2018-03-03T08:45:02.294Z,71.00
2018-03-03T08:46:02.273Z,70.90
2018-03-03T08:47:02.274Z,70.81
2018-03-03T08:48:02.283Z,70.72
2018-03-03T08:49:04.288Z,70.62
2018-03-03T08:50:02.267Z,70.62
2018-03-03T08:51:04.315Z,70.53
2018-03-03T08:52:02.301Z,70.53
2018-03-03T08:53:02.267Z,70.53
2018-03-03T08:54:02.262Z,70.53
2018-03-03T08:55:02.365Z,70.53
2018-03-03T08:56:02.255Z,70.53
2018-03-03T08:57:02.273Z,70.53
2018-03-03T08:58:02.303Z,70.53
2018-03-03T08:59:02.281Z,70.43
2018-03-03T09:00:02.255Z,70.43
2018-03-03T09:01:02.258Z,70.43
2018-03-03T09:02:02.303Z,70.43
2018-03-03T09:03:02.327Z,70.47
2018-03-03T09:04:02.259Z,70.56
2018-03-03T09:05:02.351Z,70.47
2018-03-03T09:06:02.288Z,70.47
2018-03-03T09:07:02.256Z,70.37
2018-03-03T09:08:02.351Z,70.37
2018-03-03T09:09:02.233Z,70.37
2018-03-03T09:10:02.239Z,70.37
2018-03-03T09:11:02.249Z,70.37
2018-03-03T09:12:02.274Z,70.37
2018-03-03T09:13:02.231Z,70.37
2018-03-03T09:14:02.236Z,70.37
2018-03-03T09:15:02.225Z,70.37
2018-03-03T09:16:02.289Z,70.37
2018-03-03T09:17:02.282Z,70.47
2018-03-03T09:18:02.317Z,70.37
2018-03-03T09:19:02.520Z,70.37
2018-03-03T09:20:02.218Z,70.37
2018-03-03T09:21:02.224Z,70.47
2018-03-03T09:22:02.210Z,70.37
2018-03-03T09:23:02.213Z,70.37
2018-03-03T09:24:02.215Z,70.37
2018-03-03T09:25:02.211Z,70.37
2018-03-03T09:26:02.212Z,70.37
2018-03-03T09:27:02.206Z,70.37
2018-03-03T09:28:02.204Z,70.37
2018-03-03T09:29:02.204Z,70.28
2018-03-03T09:30:02.317Z,70.28
2018-03-03T09:31:02.192Z,70.18
2018-03-03T09:32:02.332Z,70.18
2018-03-03T09:33:02.232Z,70.18
2018-03-03T09:34:02.301Z,70.18
2018-03-03T09:35:02.194Z,70.28
2018-03-03T09:36:02.245Z,70.28
2018-03-03T09:37:02.210Z,70.28
2018-03-03T09:38:03.253Z,70.28
2018-03-03T09:39:02.231Z,70.28
2018-03-03T09:40:02.232Z,70.18
2018-03-03T09:41:02.197Z,70.18
2018-03-03T09:42:02.262Z,70.18
2018-03-03T09:43:02.178Z,70.18
2018-03-03T09:44:02.264Z,70.18
2018-03-03T09:45:02.188Z,70.18
2018-03-03T09:46:02.302Z,70.18
2018-03-03T09:47:02.175Z,70.18
2018-03-03T09:48:03.230Z,70.18
2018-03-03T09:49:02.158Z,70.18
2018-03-03T09:50:02.201Z,70.21
2018-03-03T09:51:02.165Z,70.21
2018-03-03T09:52:02.214Z,70.21
2018-03-03T09:53:02.168Z,70.21
2018-03-03T09:54:02.224Z,70.03
2018-03-03T09:55:02.156Z,70.03
2018-03-03T09:56:02.244Z,69.93
2018-03-03T09:57:02.156Z,69.93
2018-03-03T09:58:02.249Z,69.84
2018-03-03T09:59:02.158Z,69.84
2018-03-03T10:00:02.180Z,69.84
2018-03-03T10:01:02.146Z,69.84
2018-03-03T10:02:06.292Z,69.93
2018-03-03T10:03:02.153Z,69.93
2018-03-03T10:04:02.187Z,69.93
2018-03-03T10:05:02.161Z,69.84
2018-03-03T10:06:02.209Z,69.84
2018-03-03T10:07:02.150Z,69.74
2018-03-03T10:08:02.216Z,69.65
2018-03-03T10:09:02.130Z,69.65
2018-03-03T10:10:02.226Z,69.65
2018-03-03T10:11:02.131Z,69.56
2018-03-03T10:12:02.260Z,69.56
2018-03-03T10:13:02.155Z,69.56
2018-03-03T10:14:02.171Z,69.56
2018-03-03T10:15:02.128Z,69.56
2018-03-03T10:16:02.158Z,69.56
2018-03-03T10:17:02.139Z,69.59
2018-03-03T10:18:02.172Z,69.59
2018-03-03T10:19:02.150Z,69.59
2018-03-03T10:20:02.188Z,69.49
2018-03-03T10:21:02.176Z,69.49
2018-03-03T10:22:02.218Z,69.49
2018-03-03T10:23:02.151Z,69.49
2018-03-03T10:24:02.209Z,69.49
2018-03-03T10:25:02.126Z,69.40
2018-03-03T10:26:02.127Z,69.21
2018-03-03T10:27:02.113Z,69.12
2018-03-03T10:28:02.144Z,69.12
2018-03-03T10:29:02.151Z,69.02
2018-03-03T10:30:02.149Z,69.02
2018-03-03T10:31:02.112Z,68.84
2018-03-03T10:32:02.159Z,68.84
2018-03-03T10:33:02.146Z,68.93
2018-03-03T10:34:02.253Z,68.84
2018-03-03T10:35:02.095Z,68.84
2018-03-03T10:36:02.190Z,68.84
2018-03-03T10:37:02.088Z,68.84
2018-03-03T10:38:02.201Z,68.84
2018-03-03T10:39:02.083Z,68.84
2018-03-03T10:40:02.115Z,68.84
2018-03-03T10:41:02.089Z,68.93
2018-03-03T10:42:02.143Z,69.02
2018-03-03T10:43:02.082Z,69.12
2018-03-03T10:44:02.138Z,69.21
2018-03-03T10:45:02.143Z,69.21
2018-03-03T10:46:02.071Z,69.31
2018-03-03T10:47:02.073Z,69.31
2018-03-03T10:48:02.195Z,69.40
2018-03-03T10:49:02.067Z,69.40
2018-03-03T10:50:02.174Z,69.49
2018-03-03T10:51:02.081Z,69.49
2018-03-03T10:52:02.092Z,69.49
2018-03-03T10:53:02.062Z,69.49
2018-03-03T10:54:02.098Z,69.59
2018-03-03T10:55:02.082Z,69.59
2018-03-03T10:56:02.062Z,69.68
2018-03-03T10:57:02.122Z,69.68
2018-03-03T10:58:02.054Z,69.68
2018-03-03T10:59:02.058Z,69.78
2018-03-03T11:00:02.136Z,69.78
2018-03-03T11:01:02.051Z,69.87
2018-03-03T11:02:02.147Z,69.87
2018-03-03T11:03:02.060Z,69.87
2018-03-03T11:04:02.052Z,69.87
2018-03-03T11:05:02.070Z,69.97
2018-03-03T11:06:02.049Z,69.97
2018-03-03T11:07:02.070Z,70.06
2018-03-03T11:08:02.091Z,70.06
2018-03-03T11:09:02.047Z,70.06
2018-03-03T11:10:02.111Z,70.16
2018-03-03T11:11:02.173Z,70.16
2018-03-03T11:12:02.118Z,70.16
2018-03-03T11:13:02.022Z,70.16
2018-03-03T11:14:02.125Z,70.12
2018-03-03T11:15:02.042Z,70.03
2018-03-03T11:16:02.034Z,70.03
2018-03-03T11:17:02.096Z,70.03
2018-03-03T11:18:02.026Z,70.12
2018-03-03T11:19:02.055Z,70.21
2018-03-03T11:20:02.018Z,70.21
2018-03-03T11:21:02.086Z,70.31
2018-03-03T11:22:02.021Z,70.31
2018-03-03T11:23:02.082Z,70.31
2018-03-03T11:24:02.010Z,70.31
2018-03-03T11:25:02.098Z,70.31
2018-03-03T11:26:02.013Z,70.40
2018-03-03T11:27:02.107Z,70.40
2018-03-03T11:28:02.022Z,70.31
2018-03-03T11:29:02.015Z,70.31
2018-03-03T11:30:02.004Z,70.21
2018-03-03T11:31:02.033Z,70.12
2018-03-03T11:32:01.996Z,70.03
2018-03-03T11:33:02.051Z,69.74
2018-03-03T11:34:02.018Z,69.46
2018-03-03T11:35:02.056Z,69.27
2018-03-03T11:36:01.990Z,69.27
2018-03-03T11:37:02.077Z,69.18
2018-03-03T11:38:01.991Z,69.18
2018-03-03T11:39:02.002Z,69.09
2018-03-03T11:40:02.088Z,69.09
2018-03-03T11:41:01.990Z,69.09
2018-03-03T11:42:01.992Z,69.18
2018-03-03T11:43:02.004Z,69.09
2018-03-03T11:44:01.977Z,68.99
2018-03-03T11:45:02.018Z,68.99
2018-03-03T11:46:01.975Z,69.09
2018-03-03T11:47:02.029Z,69.09
2018-03-03T11:48:01.972Z,69.09
2018-03-03T11:49:02.043Z,69.09
2018-03-03T11:50:01.974Z,69.18
2018-03-03T11:51:01.970Z,69.18
2018-03-03T11:52:02.064Z,69.09
2018-03-03T11:53:01.976Z,69.09
2018-03-03T11:54:01.970Z,68.99
2018-03-03T11:55:01.984Z,69.09
2018-03-03T11:56:01.968Z,69.09
2018-03-03T11:57:01.993Z,69.18
2018-03-03T11:58:01.951Z,69.18
2018-03-03T11:59:01.964Z,69.09
2018-03-03T12:00:02.027Z,69.09
2018-03-03T12:01:01.949Z,69.12
2018-03-03T12:02:01.956Z,69.12
2018-03-03T12:03:01.952Z,69.02
2018-03-03T12:04:01.943Z,69.02
2018-03-03T12:05:02.077Z,69.02
2018-03-03T12:06:01.953Z,68.93
2018-03-03T12:07:01.991Z,68.84
2018-03-03T12:08:01.949Z,68.74
2018-03-03T12:09:02.008Z,68.74
2018-03-03T12:10:01.936Z,68.74
2018-03-03T12:11:01.939Z,68.65
2018-03-03T12:12:02.024Z,68.65
2018-03-03T12:13:01.930Z,68.65
2018-03-03T12:14:01.933Z,68.65
2018-03-03T12:15:02.047Z,68.65
2018-03-03T12:16:01.923Z,68.55
2018-03-03T12:17:01.931Z,68.55
2018-03-03T12:18:02.099Z,68.65
2018-03-03T12:19:01.917Z,68.65
2018-03-03T12:20:01.975Z,68.65
2018-03-03T12:21:01.926Z,68.65
2018-03-03T12:22:02.063Z,68.65
2018-03-03T12:23:01.914Z,68.74
2018-03-03T12:24:01.966Z,68.65
2018-03-03T12:25:01.917Z,68.74
2018-03-03T12:26:01.918Z,68.74
2018-03-03T12:27:02.092Z,68.74
2018-03-03T12:28:01.928Z,68.74
2018-03-03T12:29:01.909Z,68.84
2018-03-03T12:30:02.014Z,68.74
2018-03-03T12:31:01.914Z,68.74
2018-03-03T12:32:02.032Z,68.55
2018-03-03T12:33:01.902Z,68.55
2018-03-03T12:34:01.902Z,68.55
2018-03-03T12:35:01.942Z,68.55
2018-03-03T12:36:01.899Z,68.55
2018-03-03T12:37:01.945Z,68.65
2018-03-03T12:38:01.962Z,68.55
2018-03-03T12:39:01.892Z,68.55
2018-03-03T12:40:01.979Z,68.65
2018-03-03T12:41:01.890Z,68.65
2018-03-03T12:42:01.989Z,68.74
2018-03-03T12:43:01.892Z,68.84
2018-03-03T12:44:02.004Z,68.84
2018-03-03T12:45:01.901Z,68.93
2018-03-03T12:46:01.913Z,68.93
2018-03-03T12:47:01.897Z,69.02
2018-03-03T12:48:01.940Z,69.02
2018-03-03T12:49:01.887Z,69.12
2018-03-03T12:50:01.941Z,69.21
2018-03-03T12:51:01.879Z,69.21
2018-03-03T12:52:01.878Z,69.21